createdAt,value
2022-08-30T00:15:19.393Z,4.90
2022-08-30T00:21:40.701Z,4.70
2022-08-30T00:33:58.334Z,5.35
2022-08-30T00:40:07.650Z,4.60
2022-08-30T01:10:52.672Z,4.72
2022-08-30T01:22:09.468Z,4.60
2022-08-30T01:27:13.511Z,4.63
2022-08-30T01:32:21.004Z,4.90
2022-08-30T01:37:28.022Z,5.32
2022-08-30T01:42:32.306Z,4.65
2022-08-30T01:47:35.812Z,4.82
2022-08-30T01:52:39.278Z,5.40
2022-08-30T01:57:43.625Z,4.90
2022-08-30T02:02:46.311Z,5.30
2022-08-30T02:07:48.974Z,5.53
2022-08-30T02:12:53.063Z,4.50
2022-08-30T02:17:55.827Z,5.20
2022-08-30T02:23:00.835Z,4.97
2022-08-30T02:28:05.737Z,6.78
2022-08-30T02:33:09.185Z,6.47
2022-08-30T02:38:11.916Z,5.32
2022-08-30T02:43:16.625Z,5.90
2022-08-30T02:48:20.457Z,5.10
2022-08-30T02:53:23.646Z,5.10
2022-08-30T02:58:31.303Z,4.90
2022-08-30T03:03:34.155Z,5.28
2022-08-30T03:08:37.791Z,5.47
2022-08-30T03:13:42.500Z,5.22
2022-08-30T03:18:45.308Z,5.50
2022-08-30T03:23:48.650Z,4.85
2022-08-30T03:28:53.440Z,5.53
2022-08-30T03:33:56.154Z,5.03
2022-08-30T03:38:58.908Z,5.30
2022-08-30T03:44:04.229Z,5.00
2022-08-30T03:49:09.479Z,5.23
2022-08-30T03:54:12.230Z,5.22
2022-08-30T03:59:16.461Z,6.07
2022-08-30T04:04:21.140Z,4.80
2022-08-30T04:09:24.795Z,4.93
2022-08-30T04:14:28.873Z,5.47
2022-08-30T04:19:31.852Z,5.00
2022-08-30T04:24:34.655Z,4.83
2022-08-30T04:29:38.677Z,5.10
2022-08-30T04:34:41.386Z,5.53
2022-08-30T04:39:44.069Z,4.97
2022-08-30T04:44:48.126Z,5.07
2022-08-30T04:49:50.805Z,4.90
2022-08-30T04:54:55.159Z,5.60
2022-08-30T04:59:59.196Z,4.43
2022-08-30T05:05:20.275Z,4.97
2022-08-30T05:10:23.501Z,4.80
2022-08-30T05:15:27.530Z,4.97
2022-08-30T05:20:30.329Z,4.63
2022-08-30T05:25:37.068Z,4.70
2022-08-30T05:30:41.572Z,4.45
2022-08-30T05:35:44.276Z,5.10
2022-08-30T05:40:47.028Z,4.10
2022-08-30T05:45:59.938Z,4.88
2022-08-30T05:51:08.358Z,4.75
2022-08-30T05:56:15.819Z,5.03
2022-08-30T06:01:25.859Z,4.88
2022-08-30T06:06:29.082Z,4.68
2022-08-30T06:11:31.959Z,4.45
2022-08-30T06:16:39.521Z,4.40
2022-08-30T06:21:43.307Z,5.00
2022-08-30T06:26:47.893Z,4.53
2022-08-30T06:31:51.955Z,4.18
2022-08-30T06:36:54.667Z,4.57
2022-08-30T06:41:57.372Z,4.57
2022-08-30T06:47:01.410Z,4.78
2022-08-30T06:52:05.200Z,4.28
2022-08-30T06:57:07.969Z,4.82
2022-08-30T07:02:12.431Z,4.32
2022-08-30T07:07:16.008Z,4.82
2022-08-30T07:12:18.708Z,3.92
2022-08-30T07:17:40.580Z,4.18
2022-08-30T07:46:26.023Z,4.30
2022-08-30T07:51:55.891Z,4.00
2022-08-30T08:10:24.384Z,3.72
2022-08-30T08:16:03.964Z,2.92
2022-08-30T08:21:17.234Z,2.88
2022-08-30T08:26:41.101Z,2.75
2022-08-30T08:32:19.816Z,3.40
2022-08-30T08:37:58.554Z,2.63
2022-08-30T08:44:00.478Z,2.83
2022-08-30T08:49:24.867Z,2.97
2022-08-30T08:54:47.997Z,2.67
2022-08-30T09:00:24.712Z,2.40
2022-08-30T09:05:34.311Z,2.40
2022-08-30T09:10:50.486Z,2.60
2022-08-30T09:15:59.490Z,2.47
2022-08-30T09:21:11.625Z,2.50
2022-08-30T09:26:14.643Z,2.00
2022-08-30T09:31:21.793Z,2.03
2022-08-30T09:36:29.466Z,2.08
2022-08-30T09:41:39.985Z,2.13
2022-08-30T09:46:50.103Z,1.60
2022-08-30T09:52:00.001Z,1.90
2022-08-30T09:57:13.120Z,2.20
2022-08-30T10:02:44.074Z,2.00
2022-08-30T10:07:53.734Z,2.22
2022-08-30T10:13:07.333Z,1.88
2022-08-30T10:18:19.672Z,1.90
2022-08-30T10:23:28.167Z,2.08
2022-08-30T10:28:36.017Z,4.45
2022-08-30T10:33:46.085Z,2.17
2022-08-30T10:38:51.848Z,2.30
2022-08-30T10:43:59.082Z,1.92
2022-08-30T10:49:06.580Z,1.45
2022-08-30T10:54:15.740Z,1.83
2022-08-30T11:19:34.408Z,1.80
2022-08-30T11:25:12.723Z,2.05
2022-08-30T11:30:47.434Z,1.70
2022-08-30T11:35:53.864Z,1.85
2022-08-30T11:41:10.478Z,1.83
2022-08-30T11:46:24.373Z,1.70
2022-08-30T11:52:02.975Z,1.60
2022-08-30T11:57:22.418Z,1.48
2022-08-30T12:02:56.363Z,1.50
2022-08-30T12:08:16.971Z,1.50
2022-08-30T12:13:55.280Z,1.90
2022-08-30T12:19:16.325Z,1.70
2022-08-30T12:24:34.862Z,1.70
2022-08-30T12:41:54.658Z,2.28
2022-08-30T12:53:14.155Z,2.17
2022-08-30T13:10:48.950Z,2.30
2022-08-30T13:17:05.032Z,2.10
2022-08-30T13:22:25.761Z,1.88
2022-08-30T13:27:31.054Z,1.73
2022-08-30T13:32:38.881Z,1.92
2022-08-30T13:37:49.687Z,1.40
2022-08-30T13:42:53.777Z,1.70
2022-08-30T13:47:58.185Z,1.80
2022-08-30T13:53:01.040Z,2.25
2022-08-30T13:58:03.955Z,1.80
2022-08-30T14:03:08.704Z,1.52
2022-08-30T14:13:35.756Z,1.50
2022-08-30T14:18:40.921Z,1.77
2022-08-30T14:23:43.791Z,1.45
2022-08-30T14:28:46.829Z,1.42
2022-08-30T14:33:55.998Z,1.48
2022-08-30T14:38:58.907Z,1.63
2022-08-30T14:44:02.242Z,1.45
2022-08-30T14:49:06.903Z,1.60
2022-08-30T14:54:13.901Z,1.33
2022-08-30T14:59:18.250Z,1.50
2022-08-30T15:04:22.426Z,1.35
2022-08-30T15:09:25.889Z,1.55
2022-08-30T15:14:29.546Z,1.42
2022-08-30T15:19:33.864Z,1.48
2022-08-30T15:24:36.604Z,1.55
2022-08-30T15:29:39.384Z,1.73
2022-08-30T15:34:43.471Z,1.73
2022-08-30T15:39:51.128Z,1.40
2022-08-30T15:44:54.536Z,1.60
2022-08-30T15:50:01.988Z,1.63
2022-08-30T15:55:06.697Z,1.83
2022-08-30T16:00:11.398Z,1.83
2022-08-30T16:05:15.864Z,1.60
2022-08-30T16:10:20.420Z,1.80
2022-08-30T16:15:23.232Z,1.60
2022-08-30T16:20:29.529Z,1.50
2022-08-30T16:25:40.628Z,2.00
2022-08-30T16:30:45.487Z,1.95
2022-08-30T16:35:53.142Z,1.85
2022-08-30T16:40:58.879Z,1.90
2022-08-30T16:46:02.673Z,1.88
2022-08-30T16:51:10.003Z,2.10
2022-08-30T16:56:15.898Z,2.05
2022-08-30T17:01:20.875Z,2.30
2022-08-30T17:06:26.576Z,1.98
2022-08-30T17:11:29.654Z,1.90
2022-08-30T17:16:32.840Z,2.13
2022-08-30T17:21:37.272Z,2.25
2022-08-30T17:26:41.801Z,2.13
2022-08-30T17:31:50.882Z,2.20
2022-08-30T17:37:13.752Z,2.20
2022-08-30T17:42:16.771Z,1.98
2022-08-30T17:47:19.534Z,3.03
2022-08-30T17:52:23.590Z,2.40
2022-08-30T17:57:26.374Z,2.20
2022-08-30T18:02:30.236Z,2.28
2022-08-30T18:07:34.704Z,2.67
2022-08-30T18:12:37.416Z,2.40
2022-08-30T18:17:41.203Z,2.60
2022-08-30T18:22:45.229Z,3.10
2022-08-30T18:27:57.174Z,2.83
2022-08-30T18:33:01.715Z,2.92
2022-08-30T18:38:07.097Z,3.50
2022-08-30T18:43:10.029Z,3.65
2022-08-30T18:48:14.389Z,4.78
2022-08-30T18:53:28.367Z,3.70
2022-08-30T18:58:33.049Z,2.90
2022-08-30T19:03:37.300Z,3.20
2022-08-30T19:08:45.879Z,2.78
2022-08-30T19:13:48.905Z,3.10
2022-08-30T19:18:54.183Z,3.10
2022-08-30T19:23:58.222Z,3.15
2022-08-30T19:29:01.692Z,6.88
2022-08-30T19:34:04.978Z,3.97
2022-08-30T19:39:09.927Z,3.60
2022-08-30T19:44:12.910Z,3.70
2022-08-30T19:49:15.597Z,5.22
2022-08-30T19:54:19.635Z,4.60
2022-08-30T19:59:22.519Z,3.72
2022-08-30T20:04:25.607Z,3.42
2022-08-30T20:09:29.649Z,3.92
2022-08-30T20:14:32.348Z,4.18
2022-08-30T20:19:35.177Z,3.67
2022-08-30T20:24:39.543Z,3.85
2022-08-30T20:29:46.714Z,3.58
2022-08-30T20:34:50.131Z,3.65
2022-08-30T20:39:56.892Z,3.55
2022-08-30T20:45:00.170Z,3.15
2022-08-30T20:50:05.667Z,2.75
2022-08-30T20:55:17.253Z,3.30
2022-08-30T21:00:20.250Z,3.85
2022-08-30T21:05:22.996Z,4.13
2022-08-30T21:10:27.229Z,3.60
2022-08-30T21:15:38.331Z,3.95
2022-08-30T21:20:41.282Z,3.60
2022-08-30T21:25:45.310Z,3.10
2022-08-30T21:30:48.029Z,3.42
2022-08-30T21:36:08.513Z,3.17
2022-08-30T21:41:12.831Z,3.58
2022-08-30T21:46:16.797Z,3.30
2022-08-30T21:51:19.802Z,3.70
2022-08-30T21:56:24.486Z,3.33
2022-08-30T22:01:30.128Z,3.33
2022-08-30T22:06:35.460Z,3.80
2022-08-30T22:11:39.463Z,3.90
2022-08-30T22:16:42.536Z,3.67
2022-08-30T22:21:47.897Z,3.42
2022-08-30T22:26:51.935Z,3.60
2022-08-30T22:31:54.952Z,3.63
2022-08-30T22:36:58.035Z,3.28
2022-08-30T22:42:02.117Z,4.00
2022-08-30T22:47:05.002Z,3.30
2022-08-30T22:52:07.912Z,3.28
2022-08-30T22:57:14.802Z,3.40
2022-08-30T23:02:17.604Z,3.30
2022-08-30T23:07:20.341Z,3.50
2022-08-30T23:12:24.430Z,3.90
2022-08-30T23:17:27.185Z,3.40
2022-08-30T23:22:34.509Z,3.00
2022-08-30T23:27:56.476Z,3.13
2022-08-30T23:33:17.009Z,3.47
2022-08-30T23:38:37.695Z,3.45
2022-08-30T23:43:59.588Z,3.78
2022-08-30T23:49:20.408Z,3.30
2022-08-30T23:54:41.020Z,3.47
